createdAt,value
2019-02-08T00:00:21.345Z,2.20
2019-02-08T00:02:55.992Z,2.33
2019-02-08T00:05:26.210Z,2.30
2019-02-08T00:07:56.343Z,2.60
2019-02-08T00:10:26.826Z,2.37
2019-02-08T00:12:57.629Z,2.13
2019-02-08T00:15:27.952Z,2.93
2019-02-08T00:17:58.168Z,2.00
2019-02-08T00:20:28.375Z,2.80
2019-02-08T00:22:58.505Z,2.20
2019-02-08T00:25:28.671Z,2.53
2019-02-08T00:28:01.591Z,3.10
2019-02-08T00:30:34.194Z,2.33
2019-02-08T00:33:05.708Z,2.10
2019-02-08T00:35:35.747Z,2.50
2019-02-08T00:38:06.215Z,2.13
2019-02-08T00:40:39.708Z,2.20
2019-02-08T00:43:10.195Z,2.23
2019-02-08T00:45:40.250Z,2.33
2019-02-08T00:48:10.400Z,2.50
2019-02-08T00:50:40.486Z,2.30
2019-02-08T00:53:10.664Z,2.37
2019-02-08T00:55:41.228Z,2.30
2019-02-08T00:58:11.258Z,2.27
2019-02-08T01:00:43.130Z,2.30
2019-02-08T01:03:13.251Z,2.30
2019-02-08T01:05:43.359Z,2.07
2019-02-08T01:08:14.964Z,2.30
2019-02-08T01:10:45.562Z,2.10
2019-02-08T01:13:17.507Z,2.40
2019-02-08T01:15:47.631Z,2.20
2019-02-08T01:18:17.798Z,2.30
2019-02-08T01:20:47.897Z,2.20
2019-02-08T01:23:17.935Z,2.20
2019-02-08T01:25:48.101Z,2.40
2019-02-08T01:28:18.192Z,2.60
2019-02-08T01:30:48.241Z,2.37
2019-02-08T01:33:18.244Z,2.53
2019-02-08T01:35:48.261Z,2.30
2019-02-08T01:38:18.313Z,2.40
2019-02-08T01:40:48.375Z,2.33
2019-02-08T01:43:18.532Z,2.83
2019-02-08T01:45:48.734Z,2.40
2019-02-08T01:48:18.855Z,2.40
2019-02-08T01:50:49.069Z,2.63
2019-02-08T01:53:21.323Z,2.70
2019-02-08T01:55:51.587Z,2.67
2019-02-08T01:58:23.359Z,2.63
2019-02-08T02:00:53.394Z,2.80
2019-02-08T02:03:23.523Z,2.80
2019-02-08T02:05:53.623Z,2.57
2019-02-08T02:08:23.687Z,2.40
2019-02-08T02:10:53.746Z,2.83
2019-02-08T02:13:25.923Z,2.57
2019-02-08T02:15:56.100Z,2.80
2019-02-08T02:18:26.158Z,2.93
2019-02-08T02:20:56.202Z,3.17
2019-02-08T02:23:26.269Z,2.93
2019-02-08T02:25:56.370Z,3.07
2019-02-08T02:28:26.389Z,3.10
2019-02-08T02:30:56.444Z,2.90
2019-02-08T02:33:26.433Z,3.10
2019-02-08T02:35:56.623Z,2.93
2019-02-08T02:38:26.875Z,2.60
2019-02-08T02:40:57.062Z,3.17
2019-02-08T02:43:27.178Z,2.80
2019-02-08T02:45:57.273Z,3.03
2019-02-08T02:48:29.180Z,3.00
2019-02-08T02:50:59.313Z,3.20
2019-02-08T02:53:30.913Z,3.27
2019-02-08T02:56:01.255Z,3.63
2019-02-08T02:58:33.009Z,2.90
2019-02-08T03:01:03.111Z,3.27
2019-02-08T03:03:33.119Z,3.10
2019-02-08T03:06:05.607Z,3.07
2019-02-08T03:08:36.049Z,3.23
2019-02-08T03:11:06.157Z,3.00
2019-02-08T03:13:36.477Z,3.00
2019-02-08T03:16:06.685Z,3.00
2019-02-08T03:18:36.798Z,3.70
2019-02-08T03:21:06.937Z,3.20
2019-02-08T03:23:36.972Z,3.60
2019-02-08T03:26:07.045Z,3.70
2019-02-08T03:28:37.111Z,3.20
2019-02-08T03:31:07.263Z,3.70
2019-02-08T03:33:37.332Z,3.83
2019-02-08T03:36:07.364Z,4.20
2019-02-08T03:38:37.470Z,4.17
2019-02-08T03:41:07.647Z,3.60
2019-02-08T03:43:37.781Z,4.57
2019-02-08T03:46:08.113Z,3.93
2019-02-08T03:48:38.249Z,3.80
2019-02-08T03:51:08.434Z,4.10
2019-02-08T03:53:38.588Z,3.83
2019-02-08T03:56:09.054Z,4.10
2019-02-08T03:58:39.096Z,4.40
2019-02-08T04:01:10.085Z,4.67
2019-02-08T04:03:41.936Z,4.50
2019-02-08T04:06:12.613Z,4.80
2019-02-08T04:08:42.799Z,4.90
2019-02-08T04:11:12.922Z,4.87
2019-02-08T04:13:43.051Z,4.93
2019-02-08T04:16:13.082Z,5.20
2019-02-08T04:18:43.098Z,5.93
2019-02-08T04:21:13.171Z,5.27
2019-02-08T04:23:45.006Z,4.97
2019-02-08T04:26:15.203Z,5.17
2019-02-08T04:28:45.354Z,5.70
2019-02-08T04:31:15.546Z,5.60
2019-02-08T04:33:45.625Z,5.00
2019-02-08T04:36:15.684Z,5.20
2019-02-08T04:38:45.762Z,5.20
2019-02-08T04:41:15.820Z,5.30
2019-02-08T04:43:47.466Z,5.37
2019-02-08T04:46:17.609Z,5.00
2019-02-08T04:48:47.814Z,5.87
2019-02-08T04:51:20.652Z,4.80
2019-02-08T04:53:50.645Z,5.43
2019-02-08T04:56:20.747Z,5.50
2019-02-08T04:58:50.759Z,5.47
2019-02-08T05:01:21.158Z,5.10
2019-02-08T05:03:51.279Z,5.00
2019-02-08T05:06:21.433Z,5.23
2019-02-08T05:08:52.923Z,5.87
2019-02-08T05:11:23.889Z,5.70
2019-02-08T05:13:55.382Z,5.60
2019-02-08T05:16:25.424Z,5.30
2019-02-08T05:18:55.435Z,6.53
2019-02-08T05:21:25.524Z,6.20
2019-02-08T05:23:55.631Z,6.40
2019-02-08T05:26:25.781Z,6.27
2019-02-08T05:28:58.305Z,5.97
2019-02-08T05:31:30.036Z,6.40
2019-02-08T05:34:00.276Z,6.50
2019-02-08T05:36:31.879Z,6.23
2019-02-08T05:39:01.989Z,6.93
2019-02-08T05:41:37.181Z,6.13
2019-02-08T05:44:08.054Z,6.03
2019-02-08T05:46:38.138Z,6.20
2019-02-08T05:49:08.260Z,6.00
2019-02-08T05:51:38.512Z,6.33
2019-02-08T05:54:10.931Z,5.87
2019-02-08T05:56:41.198Z,6.40
2019-02-08T05:59:11.311Z,5.87
2019-02-08T06:01:41.512Z,6.00
2019-02-08T06:04:11.591Z,5.63
2019-02-08T06:06:41.653Z,6.17
2019-02-08T06:09:11.803Z,6.13
2019-02-08T06:11:42.129Z,6.00
2019-02-08T06:14:12.263Z,5.80
2019-02-08T06:16:42.413Z,5.90
2019-02-08T06:19:13.092Z,5.60
2019-02-08T06:21:44.885Z,5.97
2019-02-08T06:24:14.978Z,5.80
2019-02-08T06:26:45.130Z,4.90
2019-02-08T06:29:17.779Z,5.60
2019-02-08T06:31:47.888Z,5.20
2019-02-08T06:34:19.644Z,5.17
2019-02-08T06:36:52.947Z,5.63
2019-02-08T06:39:23.101Z,5.60
2019-02-08T06:41:53.228Z,5.47
2019-02-08T06:44:24.299Z,6.00
2019-02-08T06:46:54.395Z,5.73
2019-02-08T06:49:24.512Z,5.50
2019-02-08T06:51:54.680Z,5.50
2019-02-08T06:54:24.921Z,5.37
2019-02-08T06:57:04.358Z,5.70
2019-02-08T06:59:39.519Z,5.97
2019-02-08T07:02:39.354Z,4.93
2019-02-08T07:05:28.371Z,5.73
2019-02-08T07:08:16.542Z,5.60
2019-02-08T07:11:08.708Z,5.47
2019-02-08T07:14:10.128Z,5.40
2019-02-08T07:16:54.171Z,5.67
2019-02-08T07:19:46.372Z,5.53
2019-02-08T07:22:25.232Z,5.30
2019-02-08T07:25:18.387Z,5.07
2019-02-08T07:28:11.562Z,5.93
2019-02-08T07:31:00.729Z,5.20
2019-02-08T07:33:46.489Z,5.43
2019-02-08T07:36:31.145Z,4.73
2019-02-08T07:39:26.388Z,5.00
2019-02-08T07:42:11.757Z,5.17
2019-02-08T07:44:59.471Z,5.47
2019-02-08T07:48:02.996Z,5.30
2019-02-08T07:57:17.557Z,4.90
2019-02-08T08:00:25.606Z,5.40
2019-02-08T08:03:30.043Z,4.50
2019-02-08T08:06:31.112Z,4.70
2019-02-08T08:09:35.984Z,4.70
2019-02-08T08:12:23.835Z,4.47
2019-02-08T08:15:11.584Z,4.70
2019-02-08T08:18:09.625Z,4.30
2019-02-08T08:21:08.005Z,4.20
2019-02-08T08:23:57.848Z,4.30
2019-02-08T08:26:54.304Z,4.20
2019-02-08T08:29:44.964Z,3.80
2019-02-08T08:32:27.581Z,3.97
2019-02-08T08:35:40.178Z,4.17
2019-02-08T08:38:53.507Z,3.70
2019-02-08T08:41:53.906Z,3.77
2019-02-08T08:45:03.752Z,3.80
2019-02-08T08:48:18.165Z,3.40
2019-02-08T08:51:32.487Z,3.50
2019-02-08T08:55:05.628Z,3.43
2019-02-08T08:57:54.826Z,3.20
2019-02-08T09:01:10.227Z,3.33
2019-02-08T09:04:17.451Z,3.20
2019-02-08T09:07:34.711Z,3.03
2019-02-08T09:10:48.861Z,3.20
2019-02-08T09:14:10.141Z,3.03
2019-02-08T09:17:21.997Z,3.30
2019-02-08T09:20:45.698Z,3.40
2019-02-08T09:23:56.074Z,3.10
2019-02-08T09:27:08.819Z,3.43
2019-02-08T09:30:34.981Z,3.20
2019-02-08T09:34:00.014Z,3.03
2019-02-08T09:37:23.286Z,3.00
2019-02-08T09:40:32.599Z,2.80
2019-02-08T09:43:38.855Z,2.80
2019-02-08T09:47:05.304Z,2.53
2019-02-08T09:50:22.220Z,2.60
2019-02-08T09:53:21.210Z,2.80
2019-02-08T09:56:20.472Z,2.30
2019-02-08T09:59:26.505Z,2.40
2019-02-08T10:02:48.651Z,2.43
2019-02-08T10:05:43.946Z,2.10
2019-02-08T10:08:46.536Z,2.40
2019-02-08T10:12:04.032Z,2.20
2019-02-08T10:15:31.303Z,2.43
2019-02-08T10:18:52.023Z,2.20
2019-02-08T10:22:22.934Z,2.23
2019-02-08T10:25:28.938Z,2.37
2019-02-08T10:28:45.097Z,2.30
2019-02-08T10:31:51.028Z,2.43
2019-02-08T10:35:03.899Z,2.00
2019-02-08T10:38:09.936Z,2.17
2019-02-08T10:41:20.881Z,2.60
2019-02-08T10:44:30.721Z,2.30
2019-02-08T10:47:33.350Z,2.50
2019-02-08T10:50:46.691Z,2.40
2019-02-08T10:53:53.791Z,2.60
2019-02-08T10:57:07.517Z,2.40
2019-02-08T11:00:36.699Z,2.47
2019-02-08T11:03:52.615Z,2.37
2019-02-08T11:07:06.865Z,2.23
2019-02-08T11:10:12.378Z,2.17
2019-02-08T11:13:28.866Z,2.40
2019-02-08T11:16:35.205Z,2.10
2019-02-08T11:19:25.173Z,2.20
2019-02-08T11:21:58.358Z,2.20
2019-02-08T11:24:29.180Z,2.80
2019-02-08T11:27:02.891Z,2.60
2019-02-08T11:29:34.273Z,2.70
2019-02-08T11:32:04.744Z,2.80
2019-02-08T11:34:34.764Z,2.27
2019-02-08T11:37:05.618Z,2.40
2019-02-08T11:39:35.632Z,2.73
2019-02-08T11:42:05.896Z,2.87
2019-02-08T11:44:36.000Z,2.97
2019-02-08T11:47:06.126Z,2.37
2019-02-08T11:49:36.192Z,2.33
2019-02-08T11:52:06.311Z,2.57
2019-02-08T11:54:36.323Z,2.57
2019-02-08T11:57:06.545Z,2.77
2019-02-08T11:59:36.675Z,2.60
2019-02-08T12:02:06.808Z,2.53
2019-02-08T12:04:37.051Z,2.73
2019-02-08T12:07:07.167Z,2.50
2019-02-08T12:09:37.744Z,2.50
2019-02-08T12:12:07.793Z,2.33
2019-02-08T12:14:37.887Z,2.70
2019-02-08T12:17:08.110Z,2.60
2019-02-08T12:19:38.718Z,2.50
2019-02-08T12:22:08.899Z,2.70
2019-02-08T12:24:38.926Z,2.67
2019-02-08T12:27:09.097Z,2.20
2019-02-08T12:29:39.299Z,2.40
2019-02-08T12:32:09.466Z,2.70
2019-02-08T12:34:40.478Z,2.77
2019-02-08T12:37:10.784Z,2.57
2019-02-08T12:39:40.856Z,2.67
2019-02-08T12:42:11.001Z,2.43
2019-02-08T12:44:41.310Z,2.63
2019-02-08T12:47:11.504Z,2.45
2019-02-08T12:49:41.694Z,2.33
2019-02-08T12:52:11.984Z,2.60
2019-02-08T12:54:42.030Z,2.50
2019-02-08T12:57:12.247Z,2.67
2019-02-08T12:59:42.722Z,2.40
2019-02-08T13:02:12.875Z,2.70
2019-02-08T13:04:42.888Z,2.50
2019-02-08T13:07:13.090Z,2.60
2019-02-08T13:09:43.265Z,2.47
2019-02-08T13:12:14.464Z,2.50
2019-02-08T13:14:44.698Z,2.50
2019-02-08T13:17:14.771Z,2.67
2019-02-08T13:19:44.782Z,2.77
2019-02-08T13:22:14.843Z,2.57
2019-02-08T13:24:44.917Z,2.23
2019-02-08T13:27:15.023Z,2.40
2019-02-08T13:29:45.141Z,2.70
2019-02-08T13:32:15.248Z,2.80
2019-02-08T13:34:45.362Z,2.40
2019-02-08T13:37:15.420Z,2.57
2019-02-08T13:39:45.560Z,2.60
2019-02-08T13:42:15.800Z,2.60
2019-02-08T13:44:45.984Z,2.70
2019-02-08T13:47:16.183Z,2.50
2019-02-08T13:49:46.745Z,2.93
2019-02-08T13:52:16.841Z,2.50
2019-02-08T13:54:46.908Z,2.43
2019-02-08T13:57:17.134Z,2.70
2019-02-08T13:59:47.243Z,2.93
2019-02-08T14:02:19.470Z,2.50
2019-02-08T14:04:49.605Z,2.40
2019-02-08T14:07:19.856Z,2.30
2019-02-08T14:09:50.031Z,2.37
2019-02-08T14:12:20.214Z,2.57
2019-02-08T14:14:51.317Z,2.63
2019-02-08T14:17:21.533Z,2.10
2019-02-08T14:19:51.680Z,2.63
2019-02-08T14:22:21.838Z,2.30
2019-02-08T14:24:52.261Z,2.70
2019-02-08T14:27:22.576Z,2.33
2019-02-08T14:29:52.600Z,2.80
2019-02-08T14:32:22.801Z,2.23
2019-02-08T14:34:52.955Z,2.67
2019-02-08T14:37:23.149Z,2.87
2019-02-08T14:39:53.379Z,2.63
2019-02-08T14:42:23.566Z,2.57
2019-02-08T14:44:53.766Z,2.40
2019-02-08T14:47:24.004Z,2.20
2019-02-08T14:49:54.126Z,2.23
2019-02-08T14:52:24.262Z,2.63
2019-02-08T14:54:54.662Z,2.30
2019-02-08T14:57:24.784Z,2.10
2019-02-08T14:59:54.919Z,2.20
2019-02-08T15:02:25.162Z,2.30
2019-02-08T15:04:55.383Z,2.00
2019-02-08T15:07:25.539Z,2.10
2019-02-08T15:09:55.714Z,2.50
2019-02-08T15:12:25.943Z,1.90
2019-02-08T15:14:56.082Z,2.10
2019-02-08T15:17:26.551Z,2.27
2019-02-08T15:19:57.892Z,2.47
2019-02-08T15:22:28.109Z,2.07
2019-02-08T15:24:58.157Z,2.30
2019-02-08T15:27:28.219Z,2.00
2019-02-08T15:29:58.297Z,2.10
2019-02-08T15:32:28.608Z,2.03
2019-02-08T15:34:58.674Z,1.87
2019-02-08T15:37:28.921Z,1.90
2019-02-08T15:39:59.110Z,1.73
2019-02-08T15:42:29.324Z,2.50
2019-02-08T15:44:59.448Z,2.20
2019-02-08T15:47:29.908Z,1.97
2019-02-08T15:50:00.096Z,2.33
2019-02-08T15:52:30.441Z,1.90
2019-02-08T15:55:00.501Z,2.30
2019-02-08T15:57:32.198Z,1.87
2019-02-08T16:00:03.627Z,2.47
2019-02-08T16:02:34.094Z,2.30
2019-02-08T16:05:05.298Z,1.90
2019-02-08T16:07:35.831Z,2.20
2019-02-08T16:10:07.355Z,2.07
2019-02-08T16:12:37.587Z,2.07
2019-02-08T16:15:10.663Z,2.10
2019-02-08T16:17:40.864Z,2.40
2019-02-08T16:20:11.161Z,2.20
2019-02-08T16:22:41.234Z,2.20
2019-02-08T16:25:11.519Z,2.00
2019-02-08T16:27:41.647Z,2.30
2019-02-08T16:30:23.526Z,2.00
2019-02-08T16:32:56.378Z,2.20
2019-02-08T16:35:26.471Z,2.30
2019-02-08T16:37:56.730Z,2.37
2019-02-08T16:40:27.877Z,2.40
2019-02-08T16:42:58.142Z,2.40
2019-02-08T16:45:30.588Z,1.97
2019-02-08T16:48:01.101Z,2.27
2019-02-08T16:50:32.085Z,2.20
2019-02-08T16:53:04.280Z,2.30
2019-02-08T16:55:34.314Z,2.37
2019-02-08T16:58:06.043Z,2.03
2019-02-08T17:00:36.792Z,2.00
2019-02-08T17:03:09.727Z,2.37
2019-02-08T17:05:40.113Z,2.10
2019-02-08T17:08:10.855Z,2.27
2019-02-08T17:10:40.953Z,2.20
2019-02-08T17:13:11.120Z,2.00
2019-02-08T17:15:41.264Z,2.30
2019-02-08T17:18:12.191Z,2.40
2019-02-08T17:20:44.507Z,2.20
2019-02-08T17:23:18.830Z,2.10
2019-02-08T17:25:48.868Z,2.17
2019-02-08T17:28:18.984Z,1.90
2019-02-08T17:30:49.009Z,2.40
2019-02-08T17:33:22.283Z,2.60
2019-02-08T17:35:52.385Z,2.10
2019-02-08T17:38:22.604Z,2.33
2019-02-08T17:40:52.613Z,2.17
2019-02-08T17:43:22.672Z,2.30
2019-02-08T17:45:54.266Z,2.10
2019-02-08T17:48:24.641Z,2.27
2019-02-08T17:50:54.729Z,2.33
2019-02-08T17:53:24.843Z,2.20
2019-02-08T17:55:54.959Z,2.20
2019-02-08T17:58:25.037Z,2.30
2019-02-08T18:00:57.173Z,2.07
2019-02-08T18:03:27.264Z,2.20
2019-02-08T18:05:57.446Z,2.27
2019-02-08T18:08:27.656Z,2.20
2019-02-08T18:10:57.802Z,1.90
2019-02-08T18:13:28.016Z,2.20
2019-02-08T18:15:58.187Z,2.10
2019-02-08T18:18:28.390Z,2.00
2019-02-08T18:21:01.672Z,2.20
2019-02-08T18:23:31.747Z,2.30
2019-02-08T18:26:01.860Z,2.23
2019-02-08T18:28:32.159Z,2.00
2019-02-08T18:31:02.267Z,2.20
2019-02-08T18:33:32.651Z,2.30
2019-02-08T18:36:04.360Z,2.77
2019-02-08T18:38:34.893Z,2.00
2019-02-08T18:41:05.085Z,2.50
2019-02-08T18:43:35.159Z,2.20
2019-02-08T18:46:05.262Z,2.30
2019-02-08T18:48:35.403Z,2.30
2019-02-08T18:51:05.440Z,2.27
2019-02-08T18:53:36.763Z,2.47
2019-02-08T18:56:06.873Z,2.27
2019-02-08T18:58:37.534Z,2.03
2019-02-08T19:01:07.665Z,2.53
2019-02-08T19:03:40.078Z,2.67
2019-02-08T19:06:10.126Z,2.40
2019-02-08T19:08:40.252Z,2.70
2019-02-08T19:11:10.356Z,2.57
2019-02-08T19:13:40.590Z,2.77
2019-02-08T19:16:10.745Z,2.77
2019-02-08T19:18:41.010Z,2.90
2019-02-08T19:21:11.163Z,2.40
2019-02-08T19:23:41.397Z,2.67
2019-02-08T19:26:11.589Z,2.80
2019-02-08T19:28:41.756Z,2.63
2019-02-08T19:31:11.952Z,2.70
2019-02-08T19:33:42.147Z,2.50
2019-02-08T19:36:12.604Z,2.60
2019-02-08T19:38:42.659Z,2.50
2019-02-08T19:41:15.038Z,2.63
2019-02-08T19:43:45.108Z,2.53
2019-02-08T19:46:15.127Z,2.60
2019-02-08T19:48:45.283Z,2.50
2019-02-08T19:51:15.504Z,2.63
2019-02-08T19:53:45.775Z,2.47
2019-02-08T19:56:16.110Z,2.60
2019-02-08T19:58:46.561Z,2.63
2019-02-08T20:01:16.613Z,2.67
2019-02-08T20:03:46.946Z,2.50
2019-02-08T20:06:17.914Z,2.83
2019-02-08T20:08:47.967Z,2.70
2019-02-08T20:11:18.120Z,2.77
2019-02-08T20:13:48.310Z,2.97
2019-02-08T20:16:18.461Z,2.90
2019-02-08T20:18:51.634Z,2.67
2019-02-08T20:21:21.931Z,2.90
2019-02-08T20:23:52.123Z,2.97
2019-02-08T20:26:22.179Z,2.70
2019-02-08T20:28:53.405Z,2.67
2019-02-08T20:31:23.485Z,2.67
2019-02-08T20:33:53.534Z,2.70
2019-02-08T20:36:25.326Z,3.47
2019-02-08T20:38:55.517Z,3.33
2019-02-08T20:41:30.243Z,3.00
2019-02-08T20:44:00.416Z,3.10
2019-02-08T20:46:30.562Z,3.03
2019-02-08T20:49:00.785Z,3.20
2019-02-08T20:51:30.958Z,3.30
2019-02-08T20:54:01.298Z,3.13
2019-02-08T20:56:31.474Z,3.30
2019-02-08T20:59:01.746Z,3.10
2019-02-08T21:01:31.886Z,3.40
2019-02-08T21:04:02.184Z,3.47
2019-02-08T21:06:32.268Z,3.03
2019-02-08T21:09:02.546Z,3.40
2019-02-08T21:11:32.637Z,3.37
2019-02-08T21:14:02.801Z,3.70
2019-02-08T21:16:33.125Z,3.57
2019-02-08T21:19:03.202Z,3.47
2019-02-08T21:21:33.357Z,3.90
2019-02-08T21:24:03.867Z,3.47
2019-02-08T21:26:33.910Z,3.87
2019-02-08T21:29:04.138Z,3.80
2019-02-08T21:31:34.256Z,4.10
2019-02-08T21:34:04.480Z,3.70
2019-02-08T21:36:39.006Z,4.10
2019-02-08T21:39:08.491Z,3.97
2019-02-08T21:41:38.618Z,3.77
2019-02-08T21:44:08.650Z,4.20
2019-02-08T21:46:38.684Z,3.90
2019-02-08T21:49:08.729Z,4.00
2019-02-08T21:51:38.812Z,3.53
2019-02-08T21:54:08.943Z,3.87
2019-02-08T21:56:39.113Z,3.97
2019-02-08T21:59:12.261Z,3.97
2019-02-08T22:01:42.422Z,3.70
2019-02-08T22:04:15.260Z,4.10
2019-02-08T22:06:45.268Z,3.93
2019-02-08T22:09:15.401Z,3.60
2019-02-08T22:11:46.263Z,3.90
2019-02-08T22:14:16.379Z,3.73
2019-02-08T22:16:46.634Z,4.10
2019-02-08T22:19:16.823Z,3.80
2019-02-08T22:21:47.126Z,3.93
2019-02-08T22:24:17.561Z,3.93
2019-02-08T22:26:48.519Z,3.97
2019-02-08T22:29:18.977Z,4.03
2019-02-08T22:31:49.075Z,4.30
2019-02-08T22:34:19.142Z,4.20
2019-02-08T22:36:49.172Z,3.87
2019-02-08T22:39:22.206Z,4.00
2019-02-08T22:41:52.378Z,3.70
2019-02-08T22:44:24.255Z,3.63
2019-02-08T22:46:54.367Z,3.70
2019-02-08T22:49:24.555Z,3.77
2019-02-08T22:51:54.644Z,3.53
2019-02-08T22:54:24.876Z,3.70
2019-02-08T22:56:54.922Z,4.03
2019-02-08T22:59:25.515Z,3.70
2019-02-08T23:01:56.455Z,3.70
2019-02-08T23:04:26.570Z,3.53
2019-02-08T23:06:56.765Z,3.47
2019-02-08T23:09:26.866Z,3.90
2019-02-08T23:11:56.947Z,2.90
2019-02-08T23:14:27.054Z,3.10
2019-02-08T23:16:57.564Z,3.23
2019-02-08T23:19:27.700Z,3.00
2019-02-08T23:21:57.837Z,3.30
2019-02-08T23:24:27.953Z,3.60
2019-02-08T23:26:58.030Z,3.43
2019-02-08T23:29:30.200Z,3.40
2019-02-08T23:31:59.951Z,3.53
2019-02-08T23:34:30.083Z,3.53
2019-02-08T23:37:00.097Z,3.60
2019-02-08T23:39:30.182Z,4.20
2019-02-08T23:42:00.218Z,3.53
2019-02-08T23:44:30.725Z,3.27
2019-02-08T23:47:00.820Z,4.10
2019-02-08T23:49:31.030Z,3.70
2019-02-08T23:52:01.081Z,4.47
2019-02-08T23:54:31.149Z,3.43
2019-02-08T23:57:01.244Z,3.77
2019-02-08T23:59:37.919Z,3.77
